Terminal Aerodrome Forecast
Issued by NWS

Home | Current Version | Previous Version | Text Only | Print | Product List | Glossary On
Versions: 1 2 3 4 5 6 7 8 9 10 11 12 13 14 15 16 17 18
911
FTUS41 KPBZ 231720
TAFHLG
TAF
KHLG 231720Z 2318/2418 11007KT P6SM SKC
     FM240700 15005KT P6SM VCSH BKN100 WS020/20040KT
     FM241300 19008G15KT P6SM BKN045=

USA.gov is the U.S. government's official web portal to all federal, state and local government web resources and services.